SKAR/AXM METAR and TAF weather

Enter ICAO airport designator
Station Type Date Time Source
SKAR METAR 2021/09/13 11:00 UTC NOAA

SKAR 131100Z 00000KT 9999 BKN020 15/15 Q1021 RMK A316


Station Type Date Time Source
SKAR Decoded METAR 2021/09/13 11:00 UTC NOAA

Armenia / El Eden, Colombia (SKAR) 04-30N 075-43W 1219M
Sep 13, 2021 - 07:00 AM EDT / 2021.09.13 1100 UTC
Wind: Calm:0
Visibility: greater than 7 mile(s):0
Sky conditions: mostly cloudy
Temperature: 59 F (15 C)
Dew Point: 59 F (15 C)
Relative Humidity: 100%
Pressure (altimeter): 30.15 in. Hg (1021 hPa)
ob: SKAR 131100Z 00000KT 9999 BKN020 15/15 Q1021 RMK A316
cycle: 11

Station Type Date Time Source
SKAR TAF 2020/12/14 06:45 UTC NOAA

TAF SKAR 140430Z 1406/1506NIL

Example: see airport list